createdAt,value
2018-06-04T00:01:21.247Z,60.57
2018-06-04T00:03:50.619Z,63.13
2018-06-04T00:06:19.625Z,59.43
2018-06-04T00:08:48.886Z,60.20
2018-06-04T00:11:18.005Z,62.50
2018-06-04T00:13:47.053Z,69.43
2018-06-04T00:16:16.075Z,65.40
2018-06-04T00:18:45.163Z,68.10
2018-06-04T00:21:14.189Z,72.43
2018-06-04T00:23:43.413Z,73.57
2018-06-04T00:26:12.450Z,71.70
2018-06-04T00:28:41.591Z,75.10
2018-06-04T00:31:10.609Z,77.27
2018-06-04T00:33:44.596Z,78.00
2018-06-04T00:36:13.640Z,81.80
2018-06-04T00:38:42.664Z,77.57
2018-06-04T00:41:11.686Z,76.00
2018-06-04T00:43:40.780Z,81.37
2018-06-04T00:46:10.059Z,69.87
2018-06-04T00:48:39.356Z,82.30
2018-06-04T00:51:08.412Z,75.60
2018-06-04T00:53:37.536Z,69.63
2018-06-04T00:56:19.548Z,76.57
2018-06-04T00:58:48.572Z,65.67
2018-06-04T01:01:17.668Z,66.77
2018-06-04T01:03:46.814Z,70.37
2018-06-04T01:06:15.869Z,61.27
2018-06-04T01:08:45.501Z,68.63
2018-06-04T01:11:14.536Z,73.53
2018-06-04T01:13:43.541Z,62.07
2018-06-04T01:16:12.952Z,66.37
2018-06-04T01:18:41.953Z,62.13
2018-06-04T01:21:10.970Z,67.33
2018-06-04T01:23:40.339Z,55.43
2018-06-04T01:26:09.340Z,52.33
2018-06-04T01:28:38.364Z,51.83
2018-06-04T01:31:08.329Z,64.17
2018-06-04T01:33:38.361Z,58.13
2018-06-04T01:36:07.416Z,56.33
2018-06-04T01:38:36.447Z,54.03
2018-06-04T01:41:05.507Z,59.53
2018-06-04T01:56:34.575Z,91.83
2018-06-04T01:59:03.613Z,79.13
2018-06-04T02:01:32.641Z,88.40
2018-06-04T02:04:01.697Z,87.03
2018-06-04T02:06:30.745Z,90.17
2018-06-04T02:08:59.750Z,79.67
2018-06-04T02:11:28.869Z,81.67
2018-06-04T02:13:57.861Z,82.90
2018-06-04T02:16:26.911Z,87.23
2018-06-04T02:18:55.932Z,75.70
2018-06-04T02:21:24.988Z,77.33
2018-06-04T02:23:54.023Z,72.37
2018-06-04T02:26:23.046Z,75.10
2018-06-04T02:28:52.136Z,69.73
2018-06-04T02:31:21.200Z,73.13
2018-06-04T02:33:50.263Z,71.23
2018-06-04T02:36:19.338Z,70.47
2018-06-04T02:38:48.339Z,61.53
2018-06-04T02:41:17.437Z,62.87
2018-06-04T02:43:46.458Z,57.43
2018-06-04T02:46:15.442Z,64.77
2018-06-04T02:48:44.766Z,56.63
2018-06-04T02:51:13.998Z,61.83
2018-06-04T02:53:43.083Z,58.40
2018-06-04T02:56:12.845Z,63.03
2018-06-04T02:58:41.846Z,63.70
2018-06-04T03:01:11.036Z,60.50
2018-06-04T03:03:40.038Z,68.80
2018-06-04T03:06:09.060Z,70.03
2018-06-04T03:08:38.492Z,68.07
2018-06-04T03:11:07.513Z,78.37
2018-06-04T03:13:36.932Z,66.97
2018-06-04T03:16:05.970Z,66.23
2018-06-04T03:18:34.967Z,64.63
2018-06-04T03:21:04.302Z,65.83
2018-06-04T03:23:33.343Z,67.10
2018-06-04T03:26:02.348Z,65.77
2018-06-04T03:28:31.361Z,67.53
2018-06-04T03:31:00.441Z,59.80
2018-06-04T03:33:29.661Z,62.10
2018-06-04T03:35:58.713Z,70.63
2018-06-04T03:38:27.737Z,71.70
2018-06-04T03:40:56.761Z,64.03
2018-06-04T03:43:26.119Z,69.47
2018-06-04T03:45:55.174Z,64.13
2018-06-04T03:48:24.211Z,70.10
2018-06-04T03:50:53.390Z,67.73
2018-06-04T03:53:22.603Z,65.50
2018-06-04T03:55:51.732Z,71.83
2018-06-04T03:58:21.629Z,73.20
2018-06-04T04:00:50.776Z,74.17
2018-06-04T04:03:19.774Z,78.33
2018-06-04T04:05:48.818Z,75.20
2018-06-04T04:08:17.893Z,68.77
2018-06-04T04:10:46.912Z,70.63
2018-06-04T04:13:15.960Z,72.67
2018-06-04T04:15:45.087Z,68.10
2018-06-04T04:18:14.370Z,69.13
2018-06-04T04:20:43.452Z,74.83
2018-06-04T04:23:12.675Z,70.23
2018-06-04T04:25:41.712Z,71.50
2018-06-04T04:28:10.713Z,73.47
2018-06-04T04:30:39.731Z,76.97
2018-06-04T04:33:08.943Z,78.03
2018-06-04T04:35:38.005Z,74.90
2018-06-04T04:38:07.025Z,78.67
2018-06-04T04:40:36.082Z,81.03
2018-06-04T04:43:05.185Z,78.97
2018-06-04T04:45:34.245Z,74.63
2018-06-04T04:48:03.342Z,79.97
2018-06-04T04:50:32.712Z,74.57
2018-06-04T04:53:01.735Z,74.20
2018-06-04T04:55:30.765Z,83.70
2018-06-04T04:57:59.813Z,73.97
2018-06-04T05:00:28.845Z,82.90
2018-06-04T05:02:58.762Z,75.93
2018-06-04T05:05:28.395Z,77.73
2018-06-04T05:07:57.455Z,72.03
2018-06-04T05:10:26.491Z,75.47
2018-06-04T05:12:55.890Z,78.87
2018-06-04T05:15:24.925Z,75.93
2018-06-04T05:17:53.923Z,77.30
2018-06-04T05:20:22.960Z,71.27
2018-06-04T05:22:52.019Z,68.20
2018-06-04T05:25:21.105Z,71.70
2018-06-04T05:27:50.141Z,79.93
2018-06-04T05:30:19.186Z,67.93
2018-06-04T05:32:48.191Z,67.07
2018-06-04T05:35:17.990Z,72.90
2018-06-04T05:37:46.998Z,68.60
2018-06-04T05:40:16.113Z,72.47
2018-06-04T05:42:45.120Z,68.20
2018-06-04T05:45:14.133Z,68.03
2018-06-04T05:47:43.156Z,64.17
2018-06-04T05:50:12.374Z,66.10
2018-06-04T05:52:41.372Z,70.10
2018-06-04T05:55:10.387Z,64.60
2018-06-04T05:57:39.391Z,61.87
2018-06-04T06:00:08.428Z,63.83
2018-06-04T06:02:37.430Z,64.07
2018-06-04T06:05:11.867Z,57.30
2018-06-04T06:07:40.861Z,63.67
2018-06-04T06:10:10.040Z,63.03
2018-06-04T06:12:39.742Z,65.67
2018-06-04T06:15:08.794Z,63.37
2018-06-04T06:17:37.917Z,65.13
2018-06-04T06:20:07.017Z,61.93
2018-06-04T06:22:36.137Z,61.00
2018-06-04T06:25:06.288Z,61.27
2018-06-04T06:27:35.293Z,58.53
2018-06-04T06:30:04.614Z,59.00
2018-06-04T06:32:33.635Z,51.93
2018-06-04T06:35:02.640Z,52.37
2018-06-04T06:37:32.020Z,56.20
2018-06-04T06:40:01.098Z,51.17
2018-06-04T06:42:30.112Z,49.40
2018-06-04T06:45:04.884Z,52.67
2018-06-04T06:47:33.951Z,49.93
2018-06-04T06:50:03.237Z,48.70
2018-06-04T06:52:32.779Z,50.10
2018-06-04T06:55:01.857Z,50.30
2018-06-04T06:57:30.957Z,51.97
2018-06-04T07:00:00.931Z,52.20
2018-06-04T07:02:30.337Z,48.53
2018-06-04T07:04:59.381Z,50.23
2018-06-04T07:07:28.425Z,49.30
2018-06-04T07:09:57.433Z,50.63
2018-06-04T07:12:26.511Z,49.40
2018-06-04T07:14:55.561Z,47.17
2018-06-04T07:17:24.819Z,47.10
2018-06-04T07:19:54.181Z,48.97
2018-06-04T07:22:23.531Z,45.60
2018-06-04T07:24:52.548Z,41.53
2018-06-04T07:27:21.581Z,45.00
2018-06-04T07:29:50.648Z,39.27
2018-06-04T07:32:19.675Z,46.00
2018-06-04T07:34:48.718Z,43.50
2018-06-04T07:37:17.994Z,43.70
2018-06-04T07:39:47.014Z,42.37
2018-06-04T07:42:16.013Z,40.73
2018-06-04T07:44:45.046Z,44.40
2018-06-04T07:47:14.164Z,42.73
2018-06-04T07:49:43.183Z,44.73
2018-06-04T07:52:12.338Z,37.50
2018-06-04T07:54:41.415Z,40.90
2018-06-04T07:57:10.631Z,46.73
2018-06-04T07:59:39.705Z,38.60
2018-06-04T08:02:08.838Z,47.57
2018-06-04T08:04:37.879Z,45.60
2018-06-04T08:07:06.877Z,45.97
2018-06-04T08:09:35.945Z,43.43
2018-06-04T08:12:05.268Z,50.23
2018-06-04T08:14:34.362Z,45.63
2018-06-04T08:17:03.437Z,44.20
2018-06-04T08:19:32.488Z,47.70
2018-06-04T08:22:01.539Z,44.27
2018-06-04T08:24:30.560Z,44.30
2018-06-04T08:27:00.624Z,41.60
2018-06-04T08:29:30.941Z,51.50
2018-06-04T08:32:00.353Z,47.13
2018-06-04T08:34:30.228Z,49.40
2018-06-04T08:36:59.560Z,48.50
2018-06-04T08:39:29.060Z,54.70
2018-06-04T08:41:58.277Z,48.63
2018-06-04T08:44:27.399Z,51.00
2018-06-04T08:46:56.482Z,53.37
2018-06-04T08:49:25.707Z,67.80
2018-06-04T08:51:54.800Z,52.13
2018-06-04T08:54:23.842Z,56.00
2018-06-04T08:56:52.914Z,54.30
2018-06-04T08:59:21.992Z,56.30
2018-06-04T09:01:51.075Z,65.67
2018-06-04T09:04:20.221Z,58.70
2018-06-04T09:06:49.269Z,51.37
2018-06-04T09:09:18.338Z,52.13
2018-06-04T09:11:47.565Z,49.73
2018-06-04T09:14:16.590Z,49.73
2018-06-04T09:16:45.677Z,52.97
2018-06-04T09:19:14.699Z,50.07
2018-06-04T09:21:43.721Z,48.93
2018-06-04T09:24:12.712Z,49.43
2018-06-04T09:26:41.740Z,56.13
2018-06-04T09:29:11.076Z,49.10
2018-06-04T09:31:40.172Z,48.53
2018-06-04T09:34:09.200Z,49.57
2018-06-04T09:36:38.214Z,52.30
2018-06-04T09:39:08.128Z,53.93
2018-06-04T09:41:37.288Z,50.77
2018-06-04T09:44:06.319Z,47.03
2018-06-04T09:46:35.366Z,50.10
2018-06-04T09:49:04.489Z,52.57
2018-06-04T09:51:33.541Z,47.60
2018-06-04T09:54:02.558Z,48.80
2018-06-04T09:56:31.568Z,48.80
2018-06-04T09:59:00.674Z,48.00
2018-06-04T10:01:30.060Z,42.90
2018-06-04T10:03:59.068Z,45.47
2018-06-04T10:06:28.601Z,43.03
2018-06-04T10:08:58.734Z,46.90
2018-06-04T10:11:27.772Z,46.07
2018-06-04T10:13:57.404Z,40.53
2018-06-04T10:16:26.408Z,44.77
2018-06-04T10:18:55.450Z,43.73
2018-06-04T10:21:24.516Z,40.67
2018-06-04T10:23:53.597Z,40.97
2018-06-04T10:26:22.684Z,35.60
2018-06-04T10:28:51.760Z,36.50
2018-06-04T10:31:20.790Z,34.87
2018-06-04T10:33:49.883Z,35.60
2018-06-04T10:36:19.006Z,35.23
2018-06-04T10:38:48.000Z,33.00
2018-06-04T10:41:18.211Z,34.27
2018-06-04T10:43:47.296Z,36.70
2018-06-04T10:46:16.288Z,37.30
2018-06-04T10:48:45.379Z,35.67
2018-06-04T10:51:14.419Z,37.93
2018-06-04T10:53:43.496Z,34.77
2018-06-04T11:09:12.582Z,36.03
2018-06-04T11:11:41.584Z,41.87
2018-06-04T11:14:10.891Z,39.60
2018-06-04T11:16:39.939Z,39.83
2018-06-04T11:19:08.950Z,41.27
2018-06-04T11:21:38.036Z,40.47
2018-06-04T11:24:07.153Z,40.33
2018-06-04T11:26:36.192Z,47.07
2018-06-04T11:29:05.572Z,41.10
2018-06-04T11:31:34.572Z,41.07
2018-06-04T11:34:03.571Z,42.97
2018-06-04T11:36:32.633Z,39.80
2018-06-04T11:39:01.993Z,41.27
2018-06-04T11:41:31.010Z,40.53
2018-06-04T11:44:00.090Z,42.33
2018-06-04T11:46:29.104Z,38.30
2018-06-04T11:48:58.117Z,43.70
2018-06-04T11:51:27.149Z,48.87
2018-06-04T11:53:56.236Z,44.97
2018-06-04T11:56:25.290Z,41.63
2018-06-04T11:58:54.236Z,42.20
2018-06-04T12:01:23.239Z,42.93
2018-06-04T12:03:52.241Z,42.30
2018-06-04T12:06:21.542Z,41.80
2018-06-04T12:08:50.596Z,44.37
2018-06-04T12:11:19.658Z,40.83
2018-06-04T12:13:48.678Z,42.87
2018-06-04T12:16:17.692Z,42.50
2018-06-04T12:18:46.658Z,45.57
2018-06-04T12:21:15.647Z,39.47
2018-06-04T12:23:44.656Z,38.17
2018-06-04T12:26:13.704Z,43.13
2018-06-04T12:28:42.720Z,39.13
2018-06-04T12:31:11.740Z,42.60
2018-06-04T12:33:40.753Z,37.30
2018-06-04T12:36:09.809Z,43.50
2018-06-04T12:38:39.464Z,37.53
2018-06-04T12:41:08.498Z,43.13
2018-06-04T12:43:37.500Z,39.33
2018-06-04T12:46:06.616Z,32.23
2018-06-04T12:48:35.620Z,31.37
2018-06-04T12:51:04.648Z,35.20
2018-06-04T12:53:33.693Z,34.80
2018-06-04T12:56:02.692Z,27.03
2018-06-04T12:58:31.812Z,35.27
2018-06-04T13:01:00.872Z,31.13
2018-06-04T13:03:29.897Z,33.10
2018-06-04T13:05:58.944Z,30.23
2018-06-04T13:08:28.072Z,32.60
2018-06-04T13:10:57.074Z,32.70
2018-06-04T13:13:26.072Z,34.93
2018-06-04T13:15:55.116Z,33.67
2018-06-04T13:18:24.180Z,34.53
2018-06-04T13:20:53.225Z,31.53
2018-06-04T13:23:22.261Z,24.27
2018-06-04T13:25:51.326Z,25.30
2018-06-04T13:28:20.420Z,24.47
2018-06-04T13:30:49.454Z,26.63
2018-06-04T13:33:18.650Z,27.53
2018-06-04T13:35:47.697Z,28.23
2018-06-04T13:38:17.056Z,28.60
2018-06-04T13:40:46.082Z,31.37
2018-06-04T13:43:15.048Z,30.17
2018-06-04T13:45:44.238Z,28.13
2018-06-04T13:48:13.264Z,24.93
2018-06-04T13:50:42.940Z,24.97
2018-06-04T13:53:12.076Z,28.47
2018-06-04T13:55:41.206Z,26.03
2018-06-04T13:58:10.393Z,27.63
2018-06-04T14:00:39.743Z,26.87
2018-06-04T14:03:08.737Z,27.13
2018-06-04T14:05:37.789Z,25.87
2018-06-04T14:08:06.979Z,22.07
2018-06-04T14:10:36.176Z,23.03
2018-06-04T14:13:05.238Z,23.27
2018-06-04T14:15:34.268Z,22.23
2018-06-04T14:18:03.805Z,21.33
2018-06-04T14:20:32.960Z,21.13
2018-06-04T14:23:02.008Z,20.93
2018-06-04T14:25:31.456Z,17.37
2018-06-04T14:28:00.484Z,21.17
2018-06-04T14:30:29.622Z,20.93
2018-06-04T14:32:58.668Z,20.43
2018-06-04T14:35:28.041Z,22.43
2018-06-04T14:37:57.081Z,24.97
2018-06-04T14:40:26.152Z,21.77
2018-06-04T14:42:55.132Z,23.83
2018-06-04T14:45:24.142Z,25.30
2018-06-04T14:47:53.136Z,24.90
2018-06-04T14:50:22.229Z,19.80
2018-06-04T14:52:51.316Z,21.63
2018-06-04T14:55:20.324Z,22.03
2018-06-04T14:57:49.322Z,22.60
2018-06-04T15:00:18.676Z,24.23
2018-06-04T15:02:47.696Z,21.83
2018-06-04T15:05:16.777Z,22.77
2018-06-04T15:07:45.820Z,24.27
2018-06-04T15:10:14.904Z,24.97
2018-06-04T15:12:48.894Z,22.60
2018-06-04T15:15:17.999Z,24.80
2018-06-04T15:17:46.970Z,23.17
2018-06-04T15:20:16.026Z,22.03
2018-06-04T15:22:45.059Z,25.73
2018-06-04T15:25:14.092Z,26.30
2018-06-04T15:27:43.243Z,27.07
2018-06-04T15:30:12.317Z,24.80
2018-06-04T15:32:41.451Z,27.93
2018-06-04T15:35:10.537Z,24.43
2018-06-04T15:37:39.676Z,27.10
2018-06-04T15:40:08.709Z,27.90
2018-06-04T15:42:37.708Z,24.43
2018-06-04T15:58:06.864Z,16.10
2018-06-04T16:00:36.136Z,15.87
2018-06-04T16:03:05.159Z,15.63
2018-06-04T16:05:34.524Z,15.17
2018-06-04T16:08:03.553Z,15.60
2018-06-04T16:10:32.615Z,20.60
2018-06-04T16:13:01.668Z,16.23
2018-06-04T16:15:37.128Z,12.80
2018-06-04T16:18:06.173Z,14.27
2018-06-04T16:20:35.236Z,15.20
2018-06-04T16:23:04.225Z,13.27
2018-06-04T16:25:33.236Z,12.70
2018-06-04T16:28:02.468Z,10.93
2018-06-04T16:30:31.516Z,13.37
2018-06-04T16:33:00.550Z,15.27
2018-06-04T16:35:29.681Z,13.53
2018-06-04T16:37:58.734Z,15.27
2018-06-04T16:40:27.827Z,12.87
2018-06-04T16:42:57.029Z,13.80
2018-06-04T16:45:26.139Z,17.40
2018-06-04T16:47:55.213Z,10.93
2018-06-04T16:50:24.262Z,13.50
2018-06-04T16:52:53.240Z,11.57
2018-06-04T16:55:22.284Z,12.13
2018-06-04T16:57:51.348Z,10.43
2018-06-04T17:00:20.525Z,10.17
2018-06-04T17:02:49.576Z,14.03
2018-06-04T17:05:18.602Z,11.30
2018-06-04T17:07:47.659Z,11.43
2018-06-04T17:10:16.734Z,9.67
2018-06-04T17:12:45.776Z,10.80
2018-06-04T17:15:14.800Z,10.23
2018-06-04T17:17:43.796Z,9.67
2018-06-04T17:20:12.805Z,16.30
2018-06-04T17:22:41.820Z,9.00
2018-06-04T17:25:10.867Z,11.37
2018-06-04T17:27:39.876Z,10.33
2018-06-04T17:30:09.003Z,11.97
2018-06-04T17:32:38.118Z,7.97
2018-06-04T17:35:07.156Z,7.20
2018-06-04T17:37:36.260Z,8.70
2018-06-04T17:40:05.311Z,7.90
2018-06-04T17:42:34.396Z,7.93
2018-06-04T17:45:03.471Z,6.63
2018-06-04T17:47:32.473Z,8.23
2018-06-04T17:50:01.524Z,8.93
2018-06-04T17:52:30.576Z,7.17
2018-06-04T17:54:59.667Z,8.13
2018-06-04T17:57:28.724Z,6.33
2018-06-04T17:59:57.728Z,7.50
2018-06-04T18:02:26.748Z,9.20
2018-06-04T18:04:55.795Z,9.23
2018-06-04T18:07:24.821Z,11.20
2018-06-04T18:09:53.844Z,12.60
2018-06-04T18:12:23.162Z,12.27
2018-06-04T18:14:52.245Z,7.10
2018-06-04T18:17:21.356Z,8.37
2018-06-04T18:19:50.468Z,8.77
2018-06-04T18:22:19.564Z,8.47
2018-06-04T18:24:48.556Z,8.47
2018-06-04T18:27:17.599Z,14.67
2018-06-04T18:29:46.614Z,15.27
2018-06-04T18:32:15.645Z,15.27
2018-06-04T18:34:44.689Z,15.40
2018-06-04T18:37:13.799Z,15.83
2018-06-04T18:39:42.936Z,13.23
2018-06-04T18:42:11.953Z,14.17
2018-06-04T18:44:40.975Z,13.83
2018-06-04T18:47:09.973Z,12.73
2018-06-04T18:49:39.016Z,13.10
2018-06-04T18:52:08.259Z,12.00
2018-06-04T18:54:37.296Z,11.17
2018-06-04T18:57:06.676Z,12.77
2018-06-04T18:59:35.743Z,12.27
2018-06-04T19:02:05.763Z,13.13
2018-06-04T19:04:34.815Z,14.40
2018-06-04T19:07:03.885Z,11.93
2018-06-04T19:09:32.925Z,14.03
2018-06-04T19:12:01.958Z,13.13
2018-06-04T19:14:31.081Z,14.67
2018-06-04T19:17:00.175Z,13.77
2018-06-04T19:19:29.196Z,14.27
2018-06-04T19:21:58.267Z,13.90
2018-06-04T19:24:27.287Z,14.40
2018-06-04T19:26:56.499Z,15.10
2018-06-04T19:29:25.462Z,14.97
2018-06-04T19:31:57.182Z,12.70
2018-06-04T19:34:32.167Z,13.13
2018-06-04T19:37:06.156Z,13.03
2018-06-04T19:39:35.159Z,12.13
2018-06-04T19:42:04.205Z,14.33
2018-06-04T19:44:33.263Z,10.97
2018-06-04T19:47:02.446Z,10.63
2018-06-04T19:49:31.420Z,11.80
2018-06-04T19:52:00.677Z,11.43
2018-06-04T19:54:29.691Z,12.37
2018-06-04T19:56:58.916Z,11.63
2018-06-04T19:59:28.023Z,15.30
2018-06-04T20:02:02.578Z,13.43
2018-06-04T20:04:31.611Z,11.90
2018-06-04T20:07:01.136Z,13.13
2018-06-04T20:09:30.145Z,12.07
2018-06-04T20:12:00.122Z,14.97
2018-06-04T20:14:34.815Z,12.47
2018-06-04T20:17:03.918Z,13.77
2018-06-04T20:19:32.969Z,12.87
2018-06-04T20:22:02.017Z,14.17
2018-06-04T20:24:31.131Z,15.63
2018-06-04T20:27:00.181Z,16.73
2018-06-04T20:29:29.302Z,14.83
2018-06-04T20:31:58.342Z,13.13
2018-06-04T20:34:27.387Z,15.20
2018-06-04T20:36:56.420Z,15.20
2018-06-04T20:39:25.479Z,16.57
2018-06-04T20:41:54.811Z,16.83
2018-06-04T20:44:23.806Z,16.13
2018-06-04T20:46:52.901Z,17.63
2018-06-04T20:49:21.929Z,20.70
2018-06-04T20:51:51.141Z,15.73
2018-06-04T20:54:20.190Z,16.57
2018-06-04T20:56:49.253Z,17.63
2018-06-04T20:59:18.317Z,18.70
2018-06-04T21:01:47.347Z,16.73
2018-06-04T21:04:16.381Z,20.20
2018-06-04T21:06:45.947Z,16.63
2018-06-04T21:09:14.957Z,18.20
2018-06-04T21:11:43.985Z,17.07
2018-06-04T21:14:12.984Z,20.30
2018-06-04T21:16:42.144Z,18.57
2018-06-04T21:19:11.211Z,18.67
2018-06-04T21:21:40.211Z,20.43
2018-06-04T21:24:09.289Z,20.37
2018-06-04T21:26:38.301Z,22.03
2018-06-04T21:29:07.293Z,22.80
2018-06-04T21:31:36.444Z,21.60
2018-06-04T21:34:05.751Z,20.97
2018-06-04T21:36:34.759Z,22.20
2018-06-04T21:39:05.101Z,23.33
2018-06-04T21:41:34.136Z,19.63
2018-06-04T21:44:03.149Z,19.93
2018-06-04T21:46:32.300Z,23.40
2018-06-04T21:49:01.404Z,26.03
2018-06-04T21:51:30.415Z,29.17
2018-06-04T21:53:59.450Z,28.80
2018-06-04T21:56:28.543Z,26.03
2018-06-04T21:58:57.625Z,31.40
2018-06-04T22:01:27.097Z,26.03
2018-06-04T22:03:56.148Z,31.03
2018-06-04T22:19:25.297Z,28.97
2018-06-04T22:21:54.314Z,26.07
2018-06-04T22:24:23.304Z,28.20
2018-06-04T22:26:52.400Z,34.23
2018-06-04T22:29:21.449Z,36.23
2018-06-04T22:31:50.507Z,35.43
2018-06-04T22:34:20.391Z,32.47
2018-06-04T22:36:54.884Z,37.97
2018-06-04T22:39:23.915Z,34.63
2018-06-04T22:41:53.031Z,32.47
2018-06-04T22:44:22.017Z,39.40
2018-06-04T22:46:51.039Z,32.77
2018-06-04T22:49:20.103Z,32.33
2018-06-04T22:51:49.100Z,35.33
2018-06-04T22:54:18.143Z,33.03
2018-06-04T22:56:47.235Z,34.77
2018-06-04T22:59:16.599Z,39.00
2018-06-04T23:01:45.615Z,33.93
2018-06-04T23:04:14.964Z,38.50
2018-06-04T23:06:44.550Z,39.43
2018-06-04T23:09:13.672Z,35.80
2018-06-04T23:11:42.798Z,44.10
2018-06-04T23:14:11.863Z,36.20
2018-06-04T23:16:40.888Z,37.50
2018-06-04T23:19:09.892Z,34.80
2018-06-04T23:21:38.940Z,34.37
2018-06-04T23:24:07.965Z,32.87
2018-06-04T23:26:36.960Z,30.97
2018-06-04T23:29:06.675Z,29.47
2018-06-04T23:31:35.807Z,30.93
2018-06-04T23:34:04.880Z,25.03
2018-06-04T23:36:33.900Z,24.97
2018-06-04T23:39:02.944Z,22.80
2018-06-04T23:41:32.070Z,26.87
2018-06-04T23:44:01.913Z,25.30
2018-06-04T23:46:30.980Z,22.97
2018-06-04T23:49:00.316Z,23.00
2018-06-04T23:51:29.392Z,21.43
2018-06-04T23:54:05.017Z,22.57
2018-06-04T23:56:34.069Z,24.23
2018-06-04T23:59:03.284Z,23.83
